sensor_id;sensor_type;location;lat;lon;timestamp;P1;durP1;ratioP1;P2;durP2;ratioP2
26502;SDS011;14177;51.520;6.764;2023-03-23T00:01:26;3.28;;;1.95;;
26502;SDS011;14177;51.520;6.764;2023-03-23T00:03:55;7.32;;;2.10;;
26502;SDS011;14177;51.520;6.764;2023-03-23T00:06:23;5.78;;;2.83;;
26502;SDS011;14177;51.520;6.764;2023-03-23T00:08:52;4.72;;;2.60;;
26502;SDS011;14177;51.520;6.764;2023-03-23T00:11:25;7.43;;;2.80;;
26502;SDS011;14177;51.520;6.764;2023-03-23T00:13:54;5.60;;;2.42;;
26502;SDS011;14177;51.520;6.764;2023-03-23T00:16:25;5.03;;;2.63;;
26502;SDS011;14177;51.520;6.764;2023-03-23T00:18:54;5.07;;;2.85;;
26502;SDS011;14177;51.520;6.764;2023-03-23T00:21:25;5.53;;;2.45;;
26502;SDS011;14177;51.520;6.764;2023-03-23T00:24:07;4.10;;;2.47;;
26502;SDS011;14177;51.520;6.764;2023-03-23T00:26:42;4.75;;;2.00;;
26502;SDS011;14177;51.520;6.764;2023-03-23T00:29:14;6.25;;;2.53;;
26502;SDS011;14177;51.520;6.764;2023-03-23T00:31:43;5.15;;;2.67;;
26502;SDS011;14177;51.520;6.764;2023-03-23T00:34:13;6.50;;;2.58;;
26502;SDS011;14177;51.520;6.764;2023-03-23T00:36:46;7.10;;;2.45;;
26502;SDS011;14177;51.520;6.764;2023-03-23T00:39:15;4.70;;;2.60;;
26502;SDS011;14177;51.520;6.764;2023-03-23T00:41:43;4.65;;;2.65;;
26502;SDS011;14177;51.520;6.764;2023-03-23T00:44:10;6.30;;;2.88;;
26502;SDS011;14177;51.520;6.764;2023-03-23T00:46:45;7.03;;;3.38;;
26502;SDS011;14177;51.520;6.764;2023-03-23T00:49:20;7.40;;;3.30;;
26502;SDS011;14177;51.520;6.764;2023-03-23T00:51:55;4.78;;;2.65;;
26502;SDS011;14177;51.520;6.764;2023-03-23T00:54:23;5.45;;;3.15;;
26502;SDS011;14177;51.520;6.764;2023-03-23T00:56:50;5.43;;;2.75;;
26502;SDS011;14177;51.520;6.764;2023-03-23T00:59:16;5.07;;;2.70;;
26502;SDS011;14177;51.520;6.764;2023-03-23T01:01:43;6.72;;;2.45;;
26502;SDS011;14177;51.520;6.764;2023-03-23T01:04:09;5.28;;;3.58;;
26502;SDS011;14177;51.520;6.764;2023-03-23T01:06:37;5.10;;;2.50;;
26502;SDS011;14177;51.520;6.764;2023-03-23T01:09:09;6.03;;;3.00;;
26502;SDS011;14177;51.520;6.764;2023-03-23T01:11:45;6.57;;;3.08;;
26502;SDS011;14177;51.520;6.764;2023-03-23T01:14:12;6.13;;;2.65;;
26502;SDS011;14177;51.520;6.764;2023-03-23T01:16:41;8.52;;;3.60;;
26502;SDS011;14177;51.520;6.764;2023-03-23T01:19:07;6.70;;;2.88;;
26502;SDS011;14177;51.520;6.764;2023-03-23T01:21:33;6.68;;;2.72;;
26502;SDS011;14177;51.520;6.764;2023-03-23T01:23:59;6.47;;;2.60;;
26502;SDS011;14177;51.520;6.764;2023-03-23T01:26:25;4.75;;;2.40;;
26502;SDS011;14177;51.520;6.764;2023-03-23T01:28:53;5.78;;;2.83;;
26502;SDS011;14177;51.520;6.764;2023-03-23T01:31:21;11.65;;;4.28;;
26502;SDS011;14177;51.520;6.764;2023-03-23T01:33:50;8.75;;;3.67;;
26502;SDS011;14177;51.520;6.764;2023-03-23T01:36:18;7.35;;;3.70;;
26502;SDS011;14177;51.520;6.764;2023-03-23T01:38:48;12.07;;;4.55;;
26502;SDS011;14177;51.520;6.764;2023-03-23T01:41:15;6.90;;;4.28;;
26502;SDS011;14177;51.520;6.764;2023-03-23T01:46:52;4.68;;;2.50;;
26502;SDS011;14177;51.520;6.764;2023-03-23T01:49:24;7.50;;;2.70;;
26502;SDS011;14177;51.520;6.764;2023-03-23T01:52:16;5.53;;;2.67;;
26502;SDS011;14177;51.520;6.764;2023-03-23T01:54:52;4.43;;;2.78;;
26502;SDS011;14177;51.520;6.764;2023-03-23T01:57:21;5.68;;;2.33;;
26502;SDS011;14177;51.520;6.764;2023-03-23T01:59:56;2.97;;;2.00;;
26502;SDS011;14177;51.520;6.764;2023-03-23T02:02:50;5.78;;;2.58;;
26502;SDS011;14177;51.520;6.764;2023-03-23T02:05:26;3.67;;;2.22;;
26502;SDS011;14177;51.520;6.764;2023-03-23T02:08:10;9.68;;;3.03;;
26502;SDS011;14177;51.520;6.764;2023-03-23T02:10:39;6.68;;;2.60;;
26502;SDS011;14177;51.520;6.764;2023-03-23T02:13:07;5.03;;;2.40;;
26502;SDS011;14177;51.520;6.764;2023-03-23T02:18:23;5.70;;;2.50;;
26502;SDS011;14177;51.520;6.764;2023-03-23T02:27:17;3.33;;;1.75;;
26502;SDS011;14177;51.520;6.764;2023-03-23T02:30:08;6.03;;;2.40;;
26502;SDS011;14177;51.520;6.764;2023-03-23T02:41:36;8.02;;;3.38;;
26502;SDS011;14177;51.520;6.764;2023-03-23T02:44:14;9.60;;;3.10;;
26502;SDS011;14177;51.520;6.764;2023-03-23T02:46:42;7.60;;;3.70;;
26502;SDS011;14177;51.520;6.764;2023-03-23T02:49:11;6.68;;;3.40;;
26502;SDS011;14177;51.520;6.764;2023-03-23T02:51:41;7.30;;;3.15;;
26502;SDS011;14177;51.520;6.764;2023-03-23T02:54:11;8.45;;;3.13;;
26502;SDS011;14177;51.520;6.764;2023-03-23T02:56:40;8.75;;;3.83;;
26502;SDS011;14177;51.520;6.764;2023-03-23T02:59:15;5.53;;;3.33;;
26502;SDS011;14177;51.520;6.764;2023-03-23T03:04:13;6.22;;;3.10;;
26502;SDS011;14177;51.520;6.764;2023-03-23T03:06:54;5.93;;;2.83;;
26502;SDS011;14177;51.520;6.764;2023-03-23T03:12:44;5.97;;;3.30;;
26502;SDS011;14177;51.520;6.764;2023-03-23T03:15:34;5.72;;;2.40;;
26502;SDS011;14177;51.520;6.764;2023-03-23T03:18:11;4.95;;;2.83;;
26502;SDS011;14177;51.520;6.764;2023-03-23T03:20:51;4.72;;;2.60;;
26502;SDS011;14177;51.520;6.764;2023-03-23T03:23:25;6.70;;;2.92;;
26502;SDS011;14177;51.520;6.764;2023-03-23T03:25:57;6.93;;;3.17;;
26502;SDS011;14177;51.520;6.764;2023-03-23T03:28:38;6.28;;;3.00;;
26502;SDS011;14177;51.520;6.764;2023-03-23T03:31:06;4.68;;;2.42;;
26502;SDS011;14177;51.520;6.764;2023-03-23T03:33:33;4.97;;;2.83;;
26502;SDS011;14177;51.520;6.764;2023-03-23T03:36:01;5.43;;;2.63;;
26502;SDS011;14177;51.520;6.764;2023-03-23T03:38:44;4.30;;;2.78;;
26502;SDS011;14177;51.520;6.764;2023-03-23T03:41:13;5.20;;;2.20;;
26502;SDS011;14177;51.520;6.764;2023-03-23T03:43:40;5.45;;;2.67;;
26502;SDS011;14177;51.520;6.764;2023-03-23T03:46:06;6.18;;;2.42;;
26502;SDS011;14177;51.520;6.764;2023-03-23T03:48:32;5.47;;;2.65;;
26502;SDS011;14177;51.520;6.764;2023-03-23T03:50:59;4.63;;;2.75;;
26502;SDS011;14177;51.520;6.764;2023-03-23T03:53:30;5.65;;;2.20;;
26502;SDS011;14177;51.520;6.764;2023-03-23T03:55:56;3.92;;;2.03;;
26502;SDS011;14177;51.520;6.764;2023-03-23T03:58:29;2.88;;;2.10;;
26502;SDS011;14177;51.520;6.764;2023-03-23T04:00:59;4.20;;;2.28;;
26502;SDS011;14177;51.520;6.764;2023-03-23T04:03:30;3.80;;;1.60;;
26502;SDS011;14177;51.520;6.764;2023-03-23T04:06:05;5.80;;;1.80;;
26502;SDS011;14177;51.520;6.764;2023-03-23T04:08:33;5.07;;;2.10;;
26502;SDS011;14177;51.520;6.764;2023-03-23T04:11:01;7.82;;;2.00;;
26502;SDS011;14177;51.520;6.764;2023-03-23T04:13:29;3.70;;;1.98;;
26502;SDS011;14177;51.520;6.764;2023-03-23T04:16:13;2.60;;;1.65;;
26502;SDS011;14177;51.520;6.764;2023-03-23T04:18:42;3.00;;;1.58;;
26502;SDS011;14177;51.520;6.764;2023-03-23T04:21:08;4.63;;;1.80;;
26502;SDS011;14177;51.520;6.764;2023-03-23T04:23:35;2.70;;;1.70;;
26502;SDS011;14177;51.520;6.764;2023-03-23T04:26:02;2.53;;;1.60;;
26502;SDS011;14177;51.520;6.764;2023-03-23T04:28:39;4.25;;;1.90;;
26502;SDS011;14177;51.520;6.764;2023-03-23T04:31:26;3.58;;;1.83;;
26502;SDS011;14177;51.520;6.764;2023-03-23T04:34:00;3.00;;;1.98;;
26502;SDS011;14177;51.520;6.764;2023-03-23T04:36:31;2.35;;;1.70;;
26502;SDS011;14177;51.520;6.764;2023-03-23T04:39:03;4.22;;;1.80;;
26502;SDS011;14177;51.520;6.764;2023-03-23T04:41:33;3.65;;;1.85;;
26502;SDS011;14177;51.520;6.764;2023-03-23T04:44:20;4.30;;;2.17;;
26502;SDS011;14177;51.520;6.764;2023-03-23T04:47:06;3.97;;;1.98;;
26502;SDS011;14177;51.520;6.764;2023-03-23T04:49:38;2.75;;;1.95;;
26502;SDS011;14177;51.520;6.764;2023-03-23T04:52:12;6.57;;;2.47;;
26502;SDS011;14177;51.520;6.764;2023-03-23T04:54:46;3.35;;;2.17;;
26502;SDS011;14177;51.520;6.764;2023-03-23T04:57:12;2.97;;;2.05;;
26502;SDS011;14177;51.520;6.764;2023-03-23T04:59:44;4.82;;;2.63;;
26502;SDS011;14177;51.520;6.764;2023-03-23T05:02:18;6.20;;;2.78;;
26502;SDS011;14177;51.520;6.764;2023-03-23T05:04:45;6.45;;;2.80;;
26502;SDS011;14177;51.520;6.764;2023-03-23T05:07:16;9.02;;;2.58;;
26502;SDS011;14177;51.520;6.764;2023-03-23T05:09:48;6.43;;;2.35;;
26502;SDS011;14177;51.520;6.764;2023-03-23T05:12:18;5.53;;;2.40;;
26502;SDS011;14177;51.520;6.764;2023-03-23T05:14:55;10.02;;;2.42;;
26502;SDS011;14177;51.520;6.764;2023-03-23T05:17:24;2.85;;;1.85;;
26502;SDS011;14177;51.520;6.764;2023-03-23T05:19:53;6.18;;;2.72;;
26502;SDS011;14177;51.520;6.764;2023-03-23T05:22:50;5.50;;;2.08;;
26502;SDS011;14177;51.520;6.764;2023-03-23T05:25:25;7.13;;;2.47;;
26502;SDS011;14177;51.520;6.764;2023-03-23T05:28:00;4.45;;;2.45;;
26502;SDS011;14177;51.520;6.764;2023-03-23T05:30:38;6.18;;;2.40;;
26502;SDS011;14177;51.520;6.764;2023-03-23T05:33:07;6.68;;;2.83;;
26502;SDS011;14177;51.520;6.764;2023-03-23T05:35:44;4.45;;;2.40;;
26502;SDS011;14177;51.520;6.764;2023-03-23T05:38:17;6.07;;;2.20;;
26502;SDS011;14177;51.520;6.764;2023-03-23T05:40:44;4.70;;;2.38;;
26502;SDS011;14177;51.520;6.764;2023-03-23T05:43:31;3.60;;;2.30;;
26502;SDS011;14177;51.520;6.764;2023-03-23T05:46:51;6.63;;;2.60;;
26502;SDS011;14177;51.520;6.764;2023-03-23T05:49:21;4.75;;;2.58;;
26502;SDS011;14177;51.520;6.764;2023-03-23T05:51:47;4.50;;;2.00;;
26502;SDS011;14177;51.520;6.764;2023-03-23T05:54:16;5.03;;;2.55;;
26502;SDS011;14177;51.520;6.764;2023-03-23T05:59:51;6.07;;;2.60;;
26502;SDS011;14177;51.520;6.764;2023-03-23T06:02:21;6.50;;;2.42;;
26502;SDS011;14177;51.520;6.764;2023-03-23T06:04:51;7.70;;;2.60;;
26502;SDS011;14177;51.520;6.764;2023-03-23T06:07:38;8.65;;;3.20;;
26502;SDS011;14177;51.520;6.764;2023-03-23T06:10:09;5.93;;;2.85;;
26502;SDS011;14177;51.520;6.764;2023-03-23T06:12:38;9.82;;;2.90;;
26502;SDS011;14177;51.520;6.764;2023-03-23T06:15:38;4.47;;;2.15;;
26502;SDS011;14177;51.520;6.764;2023-03-23T06:18:33;4.95;;;2.63;;
26502;SDS011;14177;51.520;6.764;2023-03-23T06:21:25;4.38;;;2.17;;
26502;SDS011;14177;51.520;6.764;2023-03-23T06:23:58;6.93;;;2.30;;
26502;SDS011;14177;51.520;6.764;2023-03-23T06:26:30;5.70;;;2.65;;
26502;SDS011;14177;51.520;6.764;2023-03-23T06:29:05;4.65;;;2.20;;
26502;SDS011;14177;51.520;6.764;2023-03-23T06:31:39;7.30;;;2.63;;
26502;SDS011;14177;51.520;6.764;2023-03-23T06:34:12;5.10;;;2.10;;
26502;SDS011;14177;51.520;6.764;2023-03-23T06:36:51;6.07;;;2.38;;
26502;SDS011;14177;51.520;6.764;2023-03-23T06:39:28;6.22;;;2.15;;
26502;SDS011;14177;51.520;6.764;2023-03-23T06:42:24;5.20;;;2.15;;
26502;SDS011;14177;51.520;6.764;2023-03-23T06:45:04;6.95;;;2.30;;
26502;SDS011;14177;51.520;6.764;2023-03-23T06:47:34;5.53;;;2.38;;
26502;SDS011;14177;51.520;6.764;2023-03-23T06:50:01;5.35;;;2.20;;
26502;SDS011;14177;51.520;6.764;2023-03-23T06:52:34;7.10;;;2.45;;
26502;SDS011;14177;51.520;6.764;2023-03-23T06:55:00;4.18;;;2.30;;
26502;SDS011;14177;51.520;6.764;2023-03-23T06:57:28;4.85;;;2.30;;
26502;SDS011;14177;51.520;6.764;2023-03-23T06:59:55;10.20;;;2.58;;
26502;SDS011;14177;51.520;6.764;2023-03-23T07:02:43;5.95;;;2.58;;
26502;SDS011;14177;51.520;6.764;2023-03-23T07:05:11;4.53;;;1.67;;
26502;SDS011;14177;51.520;6.764;2023-03-23T07:07:39;5.85;;;2.63;;
26502;SDS011;14177;51.520;6.764;2023-03-23T07:10:29;8.63;;;2.55;;
26502;SDS011;14177;51.520;6.764;2023-03-23T07:12:55;7.97;;;2.33;;
26502;SDS011;14177;51.520;6.764;2023-03-23T07:15:22;8.68;;;2.60;;
26502;SDS011;14177;51.520;6.764;2023-03-23T07:17:51;6.55;;;2.25;;
26502;SDS011;14177;51.520;6.764;2023-03-23T07:20:28;5.40;;;2.40;;
26502;SDS011;14177;51.520;6.764;2023-03-23T07:22:55;7.65;;;2.70;;
26502;SDS011;14177;51.520;6.764;2023-03-23T07:25:35;9.68;;;2.40;;
26502;SDS011;14177;51.520;6.764;2023-03-23T07:28:02;8.25;;;2.17;;
26502;SDS011;14177;51.520;6.764;2023-03-23T07:30:29;6.55;;;1.80;;
26502;SDS011;14177;51.520;6.764;2023-03-23T07:32:56;7.15;;;2.10;;
26502;SDS011;14177;51.520;6.764;2023-03-23T07:35:24;6.35;;;2.10;;
26502;SDS011;14177;51.520;6.764;2023-03-23T07:37:56;4.90;;;2.00;;
26502;SDS011;14177;51.520;6.764;2023-03-23T07:40:24;5.72;;;2.10;;
26502;SDS011;14177;51.520;6.764;2023-03-23T07:42:53;8.05;;;2.28;;
26502;SDS011;14177;51.520;6.764;2023-03-23T07:45:39;3.33;;;1.63;;
26502;SDS011;14177;51.520;6.764;2023-03-23T07:48:05;6.65;;;2.05;;
26502;SDS011;14177;51.520;6.764;2023-03-23T07:50:31;6.43;;;2.03;;
26502;SDS011;14177;51.520;6.764;2023-03-23T07:53:04;4.38;;;1.80;;
26502;SDS011;14177;51.520;6.764;2023-03-23T07:55:31;8.10;;;2.47;;
26502;SDS011;14177;51.520;6.764;2023-03-23T07:58:25;4.40;;;1.85;;
26502;SDS011;14177;51.520;6.764;2023-03-23T08:00:54;7.40;;;2.08;;
26502;SDS011;14177;51.520;6.764;2023-03-23T08:03:26;4.63;;;1.70;;
26502;SDS011;14177;51.520;6.764;2023-03-23T08:06:19;7.55;;;1.63;;
26502;SDS011;14177;51.520;6.764;2023-03-23T08:08:53;3.73;;;1.83;;
26502;SDS011;14177;51.520;6.764;2023-03-23T08:11:52;8.32;;;1.70;;
26502;SDS011;14177;51.520;6.764;2023-03-23T08:14:37;5.90;;;1.90;;
26502;SDS011;14177;51.520;6.764;2023-03-23T08:17:23;4.00;;;1.60;;
26502;SDS011;14177;51.520;6.764;2023-03-23T08:20:22;5.82;;;2.10;;
26502;SDS011;14177;51.520;6.764;2023-03-23T08:22:51;5.53;;;1.67;;
26502;SDS011;14177;51.520;6.764;2023-03-23T08:25:27;7.07;;;2.00;;
26502;SDS011;14177;51.520;6.764;2023-03-23T08:28:18;4.15;;;1.88;;
26502;SDS011;14177;51.520;6.764;2023-03-23T08:31:07;8.43;;;1.02;;
26502;SDS011;14177;51.520;6.764;2023-03-23T08:33:53;4.75;;;1.70;;
26502;SDS011;14177;51.520;6.764;2023-03-23T08:36:44;4.75;;;1.50;;
26502;SDS011;14177;51.520;6.764;2023-03-23T08:39:34;6.75;;;1.70;;
26502;SDS011;14177;51.520;6.764;2023-03-23T08:42:00;10.73;;;1.60;;
26502;SDS011;14177;51.520;6.764;2023-03-23T08:44:43;6.32;;;1.75;;
26502;SDS011;14177;51.520;6.764;2023-03-23T08:47:36;5.55;;;1.70;;
26502;SDS011;14177;51.520;6.764;2023-03-23T08:50:15;8.80;;;1.90;;
26502;SDS011;14177;51.520;6.764;2023-03-23T08:52:47;3.55;;;1.20;;
26502;SDS011;14177;51.520;6.764;2023-03-23T08:55:27;5.30;;;1.42;;
26502;SDS011;14177;51.520;6.764;2023-03-23T08:58:11;5.15;;;1.88;;
26502;SDS011;14177;51.520;6.764;2023-03-23T09:01:04;4.90;;;1.48;;
26502;SDS011;14177;51.520;6.764;2023-03-23T09:03:52;3.15;;;1.20;;
26502;SDS011;14177;51.520;6.764;2023-03-23T09:06:28;6.93;;;1.70;;
26502;SDS011;14177;51.520;6.764;2023-03-23T09:08:54;5.72;;;1.80;;
26502;SDS011;14177;51.520;6.764;2023-03-23T09:11:21;6.03;;;1.75;;
26502;SDS011;14177;51.520;6.764;2023-03-23T09:13:48;7.53;;;1.80;;
26502;SDS011;14177;51.520;6.764;2023-03-23T09:16:16;6.43;;;1.85;;
26502;SDS011;14177;51.520;6.764;2023-03-23T09:18:43;5.95;;;1.95;;
26502;SDS011;14177;51.520;6.764;2023-03-23T09:21:09;2.00;;;0.85;;
26502;SDS011;14177;51.520;6.764;2023-03-23T09:23:36;6.25;;;1.13;;
26502;SDS011;14177;51.520;6.764;2023-03-23T09:26:02;5.15;;;1.00;;
26502;SDS011;14177;51.520;6.764;2023-03-23T09:28:29;2.85;;;0.90;;
26502;SDS011;14177;51.520;6.764;2023-03-23T09:30:56;4.32;;;1.00;;
26502;SDS011;14177;51.520;6.764;2023-03-23T09:33:24;2.97;;;0.70;;
26502;SDS011;14177;51.520;6.764;2023-03-23T09:35:59;3.03;;;0.70;;
26502;SDS011;14177;51.520;6.764;2023-03-23T09:38:31;3.53;;;0.95;;
26502;SDS011;14177;51.520;6.764;2023-03-23T09:47:05;5.28;;;1.10;;
26502;SDS011;14177;51.520;6.764;2023-03-23T09:50:12;1.58;;;1.00;;
26502;SDS011;14177;51.520;6.764;2023-03-23T09:52:56;12.27;;;1.10;;
26502;SDS011;14177;51.520;6.764;2023-03-23T09:55:44;3.10;;;1.10;;
26502;SDS011;14177;51.520;6.764;2023-03-23T09:58:16;2.85;;;1.00;;
26502;SDS011;14177;51.520;6.764;2023-03-23T10:03:39;4.53;;;0.90;;
26502;SDS011;14177;51.520;6.764;2023-03-23T10:06:12;2.45;;;1.02;;
26502;SDS011;14177;51.520;6.764;2023-03-23T10:08:50;4.25;;;1.08;;
26502;SDS011;14177;51.520;6.764;2023-03-23T10:12:04;5.93;;;1.20;;
26502;SDS011;14177;51.520;6.764;2023-03-23T10:14:23;2.38;;;1.00;;
26502;SDS011;14177;51.520;6.764;2023-03-23T10:20:02;3.08;;;1.10;;
26502;SDS011;14177;51.520;6.764;2023-03-23T10:22:34;2.45;;;0.90;;
26502;SDS011;14177;51.520;6.764;2023-03-23T10:25:56;5.40;;;1.02;;
26502;SDS011;14177;51.520;6.764;2023-03-23T10:28:39;2.92;;;0.85;;
26502;SDS011;14177;51.520;6.764;2023-03-23T10:31:15;3.30;;;1.13;;
26502;SDS011;14177;51.520;6.764;2023-03-23T10:33:49;3.83;;;1.13;;
26502;SDS011;14177;51.520;6.764;2023-03-23T10:36:34;4.43;;;1.20;;
26502;SDS011;14177;51.520;6.764;2023-03-23T10:39:41;7.32;;;1.48;;
26502;SDS011;14177;51.520;6.764;2023-03-23T10:42:25;4.00;;;1.17;;
26502;SDS011;14177;51.520;6.764;2023-03-23T10:44:58;9.73;;;2.30;;
26502;SDS011;14177;51.520;6.764;2023-03-23T10:47:41;7.40;;;2.95;;
26502;SDS011;14177;51.520;6.764;2023-03-23T10:50:17;6.25;;;2.03;;
26502;SDS011;14177;51.520;6.764;2023-03-23T10:52:52;9.02;;;2.15;;
26502;SDS011;14177;51.520;6.764;2023-03-23T10:55:23;5.65;;;1.15;;
26502;SDS011;14177;51.520;6.764;2023-03-23T10:58:04;7.35;;;1.33;;
26502;SDS011;14177;51.520;6.764;2023-03-23T11:01:02;8.57;;;2.63;;
26502;SDS011;14177;51.520;6.764;2023-03-23T11:03:41;4.07;;;1.80;;
26502;SDS011;14177;51.520;6.764;2023-03-23T11:06:22;6.70;;;1.58;;
26502;SDS011;14177;51.520;6.764;2023-03-23T11:08:58;4.45;;;1.67;;
26502;SDS011;14177;51.520;6.764;2023-03-23T11:11:42;6.90;;;1.88;;
26502;SDS011;14177;51.520;6.764;2023-03-23T11:14:16;6.40;;;1.73;;
26502;SDS011;14177;51.520;6.764;2023-03-23T11:17:04;2.63;;;1.25;;
26502;SDS011;14177;51.520;6.764;2023-03-23T11:19:46;4.63;;;1.42;;
26502;SDS011;14177;51.520;6.764;2023-03-23T11:22:19;4.85;;;1.60;;
26502;SDS011;14177;51.520;6.764;2023-03-23T11:24:55;5.68;;;1.40;;
26502;SDS011;14177;51.520;6.764;2023-03-23T11:27:27;3.05;;;1.33;;
26502;SDS011;14177;51.520;6.764;2023-03-23T11:30:01;6.63;;;1.60;;
26502;SDS011;14177;51.520;6.764;2023-03-23T11:32:49;6.40;;;1.65;;
26502;SDS011;14177;51.520;6.764;2023-03-23T11:35:20;10.60;;;1.92;;
26502;SDS011;14177;51.520;6.764;2023-03-23T11:37:55;4.80;;;1.50;;
26502;SDS011;14177;51.520;6.764;2023-03-23T11:40:24;3.80;;;1.38;;
26502;SDS011;14177;51.520;6.764;2023-03-23T11:48:57;2.88;;;1.20;;
26502;SDS011;14177;51.520;6.764;2023-03-23T11:51:41;6.55;;;1.92;;
26502;SDS011;14177;51.520;6.764;2023-03-23T11:54:19;3.83;;;1.17;;
26502;SDS011;14177;51.520;6.764;2023-03-23T11:56:54;4.75;;;1.50;;
26502;SDS011;14177;51.520;6.764;2023-03-23T12:14:22;2.10;;;1.23;;
26502;SDS011;14177;51.520;6.764;2023-03-23T12:37:19;3.58;;;1.45;;
26502;SDS011;14177;51.520;6.764;2023-03-23T12:55:46;4.97;;;2.40;;
26502;SDS011;14177;51.520;6.764;2023-03-23T12:58:25;7.60;;;2.47;;
26502;SDS011;14177;51.520;6.764;2023-03-23T13:01:01;7.97;;;2.58;;
26502;SDS011;14177;51.520;6.764;2023-03-23T13:03:39;7.80;;;1.75;;
26502;SDS011;14177;51.520;6.764;2023-03-23T13:12:07;6.35;;;1.70;;
26502;SDS011;14177;51.520;6.764;2023-03-23T13:18:00;3.97;;;1.77;;
26502;SDS011;14177;51.520;6.764;2023-03-23T13:20:45;5.20;;;1.60;;
26502;SDS011;14177;51.520;6.764;2023-03-23T13:23:37;7.53;;;1.90;;
26502;SDS011;14177;51.520;6.764;2023-03-23T13:26:12;3.28;;;1.88;;
26502;SDS011;14177;51.520;6.764;2023-03-23T13:28:51;4.78;;;2.22;;
26502;SDS011;14177;51.520;6.764;2023-03-23T13:36:58;6.13;;;2.00;;
26502;SDS011;14177;51.520;6.764;2023-03-23T13:39:54;7.35;;;2.90;;
26502;SDS011;14177;51.520;6.764;2023-03-23T13:42:54;7.70;;;2.45;;
26502;SDS011;14177;51.520;6.764;2023-03-23T13:45:35;5.43;;;1.92;;
26502;SDS011;14177;51.520;6.764;2023-03-23T13:50:48;9.50;;;2.40;;
26502;SDS011;14177;51.520;6.764;2023-03-23T13:53:29;9.37;;;2.80;;
26502;SDS011;14177;51.520;6.764;2023-03-23T13:59:30;6.90;;;2.00;;
26502;SDS011;14177;51.520;6.764;2023-03-23T14:02:21;6.75;;;2.30;;
26502;SDS011;14177;51.520;6.764;2023-03-23T14:05:07;9.30;;;3.55;;
26502;SDS011;14177;51.520;6.764;2023-03-23T14:08:02;8.60;;;2.30;;
26502;SDS011;14177;51.520;6.764;2023-03-23T14:13:37;6.50;;;2.40;;
26502;SDS011;14177;51.520;6.764;2023-03-23T14:16:23;8.80;;;2.15;;
26502;SDS011;14177;51.520;6.764;2023-03-23T14:19:13;3.85;;;1.60;;
26502;SDS011;14177;51.520;6.764;2023-03-23T14:21:59;4.25;;;1.60;;
26502;SDS011;14177;51.520;6.764;2023-03-23T14:24:31;5.45;;;1.90;;
26502;SDS011;14177;51.520;6.764;2023-03-23T14:29:33;4.25;;;1.70;;
26502;SDS011;14177;51.520;6.764;2023-03-23T14:31:59;5.50;;;2.10;;
26502;SDS011;14177;51.520;6.764;2023-03-23T14:34:27;4.18;;;1.73;;
26502;SDS011;14177;51.520;6.764;2023-03-23T14:36:57;5.90;;;1.75;;
26502;SDS011;14177;51.520;6.764;2023-03-23T14:39:26;5.32;;;1.70;;
26502;SDS011;14177;51.520;6.764;2023-03-23T14:42:02;4.35;;;2.15;;
26502;SDS011;14177;51.520;6.764;2023-03-23T14:44:42;5.18;;;2.40;;
26502;SDS011;14177;51.520;6.764;2023-03-23T14:47:20;4.00;;;2.40;;
26502;SDS011;14177;51.520;6.764;2023-03-23T14:49:46;5.30;;;2.60;;
26502;SDS011;14177;51.520;6.764;2023-03-23T14:52:21;4.60;;;2.30;;
26502;SDS011;14177;51.520;6.764;2023-03-23T14:54:53;4.30;;;1.92;;
26502;SDS011;14177;51.520;6.764;2023-03-23T14:59:49;3.65;;;2.00;;
26502;SDS011;14177;51.520;6.764;2023-03-23T15:02:17;4.88;;;1.70;;
26502;SDS011;14177;51.520;6.764;2023-03-23T15:05:10;9.77;;;2.30;;
26502;SDS011;14177;51.520;6.764;2023-03-23T15:07:42;3.83;;;1.40;;
26502;SDS011;14177;51.520;6.764;2023-03-23T15:10:14;5.63;;;1.90;;
26502;SDS011;14177;51.520;6.764;2023-03-23T15:12:45;4.80;;;1.38;;
26502;SDS011;14177;51.520;6.764;2023-03-23T15:15:34;5.53;;;1.25;;
26502;SDS011;14177;51.520;6.764;2023-03-23T15:18:02;4.68;;;1.42;;
26502;SDS011;14177;51.520;6.764;2023-03-23T15:20:45;6.43;;;1.55;;
26502;SDS011;14177;51.520;6.764;2023-03-23T15:23:17;3.72;;;1.30;;
26502;SDS011;14177;51.520;6.764;2023-03-23T15:25:53;4.18;;;1.20;;
26502;SDS011;14177;51.520;6.764;2023-03-23T15:28:28;5.22;;;1.13;;
26502;SDS011;14177;51.520;6.764;2023-03-23T15:30:59;5.32;;;1.60;;
26502;SDS011;14177;51.520;6.764;2023-03-23T15:33:38;3.42;;;1.50;;
26502;SDS011;14177;51.520;6.764;2023-03-23T15:36:08;5.68;;;1.67;;
26502;SDS011;14177;51.520;6.764;2023-03-23T15:38:45;5.20;;;1.38;;
26502;SDS011;14177;51.520;6.764;2023-03-23T15:41:26;4.00;;;1.50;;
26502;SDS011;14177;51.520;6.764;2023-03-23T15:43:56;6.32;;;1.75;;
26502;SDS011;14177;51.520;6.764;2023-03-23T15:46:35;4.40;;;1.55;;
26502;SDS011;14177;51.520;6.764;2023-03-23T15:49:13;4.65;;;1.45;;
26502;SDS011;14177;51.520;6.764;2023-03-23T15:51:41;4.38;;;1.35;;
26502;SDS011;14177;51.520;6.764;2023-03-23T15:54:09;4.03;;;1.60;;
26502;SDS011;14177;51.520;6.764;2023-03-23T15:56:40;4.38;;;1.50;;
26502;SDS011;14177;51.520;6.764;2023-03-23T15:59:08;8.23;;;1.80;;
26502;SDS011;14177;51.520;6.764;2023-03-23T16:01:37;5.60;;;1.80;;
26502;SDS011;14177;51.520;6.764;2023-03-23T16:04:09;5.88;;;1.50;;
26502;SDS011;14177;51.520;6.764;2023-03-23T16:06:44;6.18;;;1.92;;
26502;SDS011;14177;51.520;6.764;2023-03-23T16:09:15;6.93;;;2.40;;
26502;SDS011;14177;51.520;6.764;2023-03-23T16:11:45;7.65;;;2.10;;
26502;SDS011;14177;51.520;6.764;2023-03-23T16:14:13;4.07;;;1.80;;
26502;SDS011;14177;51.520;6.764;2023-03-23T16:16:42;5.07;;;1.83;;
26502;SDS011;14177;51.520;6.764;2023-03-23T16:19:16;11.32;;;2.67;;
26502;SDS011;14177;51.520;6.764;2023-03-23T16:21:45;7.43;;;2.25;;
26502;SDS011;14177;51.520;6.764;2023-03-23T16:24:13;4.43;;;1.60;;
26502;SDS011;14177;51.520;6.764;2023-03-23T16:26:43;10.60;;;2.20;;
26502;SDS011;14177;51.520;6.764;2023-03-23T16:29:11;5.60;;;2.28;;
26502;SDS011;14177;51.520;6.764;2023-03-23T16:32:01;7.82;;;1.65;;
26502;SDS011;14177;51.520;6.764;2023-03-23T16:34:28;6.28;;;1.70;;
26502;SDS011;14177;51.520;6.764;2023-03-23T16:36:58;6.40;;;1.90;;
26502;SDS011;14177;51.520;6.764;2023-03-23T16:39:26;6.28;;;2.10;;
26502;SDS011;14177;51.520;6.764;2023-03-23T16:41:53;5.95;;;2.40;;
26502;SDS011;14177;51.520;6.764;2023-03-23T16:44:20;6.57;;;2.10;;
26502;SDS011;14177;51.520;6.764;2023-03-23T16:46:47;5.63;;;1.88;;
26502;SDS011;14177;51.520;6.764;2023-03-23T16:49:14;7.20;;;2.85;;
26502;SDS011;14177;51.520;6.764;2023-03-23T16:51:41;7.07;;;2.67;;
26502;SDS011;14177;51.520;6.764;2023-03-23T16:54:08;7.03;;;2.53;;
26502;SDS011;14177;51.520;6.764;2023-03-23T16:56:35;7.30;;;2.63;;
26502;SDS011;14177;51.520;6.764;2023-03-23T16:59:04;9.40;;;2.40;;
26502;SDS011;14177;51.520;6.764;2023-03-23T17:01:31;6.03;;;2.22;;
26502;SDS011;14177;51.520;6.764;2023-03-23T17:03:58;7.80;;;3.17;;
26502;SDS011;14177;51.520;6.764;2023-03-23T17:06:26;5.35;;;2.22;;
26502;SDS011;14177;51.520;6.764;2023-03-23T17:08:53;7.10;;;2.45;;
26502;SDS011;14177;51.520;6.764;2023-03-23T17:11:20;13.98;;;3.45;;
26502;SDS011;14177;51.520;6.764;2023-03-23T17:13:47;5.95;;;2.60;;
26502;SDS011;14177;51.520;6.764;2023-03-23T17:16:14;5.78;;;2.42;;
26502;SDS011;14177;51.520;6.764;2023-03-23T17:18:41;7.20;;;2.13;;
26502;SDS011;14177;51.520;6.764;2023-03-23T17:21:08;9.38;;;2.88;;
26502;SDS011;14177;51.520;6.764;2023-03-23T17:23:35;6.20;;;2.40;;
26502;SDS011;14177;51.520;6.764;2023-03-23T17:26:02;8.32;;;2.97;;
26502;SDS011;14177;51.520;6.764;2023-03-23T17:28:30;5.85;;;2.78;;
26502;SDS011;14177;51.520;6.764;2023-03-23T17:30:57;6.68;;;2.83;;
26502;SDS011;14177;51.520;6.764;2023-03-23T17:33:24;6.82;;;2.55;;
26502;SDS011;14177;51.520;6.764;2023-03-23T17:35:51;6.25;;;2.85;;
26502;SDS011;14177;51.520;6.764;2023-03-23T17:38:19;7.93;;;2.80;;
26502;SDS011;14177;51.520;6.764;2023-03-23T17:40:46;11.05;;;3.33;;